Time;durP1;ratioP1;P1;durP2;ratioP2;P2;SDS_P1;SDS_P2;PMS_P1;PMS_P2;Temp;Humidity;BMP_temperature;BMP_pressure;BME280_temperature;BME280_humidity;BME280_pressure;Samples;Min_cycle;Max_cycle;Signal;HPM_P1;HPM_P2
2023/01/17 08:01:44;;;;;;;15.40;6.03;;;2.40;99.90;;;;;;5041952;28;20091;-92
2023/01/17 08:04:36;;;;;;;;;;;;;;;;;;;;;
2023/01/17 08:07:02;;;;;;;20.27;7.13;;;2.50;99.90;;;;;;5030475;28;20103;-90
2023/01/17 08:09:28;;;;;;;14.98;6.47;;;2.50;99.90;;;;;;5024999;28;20057;-92
2023/01/17 08:11:53;;;;;;;17.17;6.93;;;2.40;99.90;;;;;;5028259;28;20059;-91
2023/01/17 08:14:19;;;;;;;16.05;6.93;;;2.40;99.90;;;;;;5026996;28;20544;-92
2023/01/17 08:16:45;;;;;;;21.38;7.00;;;2.50;99.90;;;;;;5002300;28;20395;-86
2023/01/17 08:19:10;;;;;;;19.25;7.15;;;2.40;99.90;;;;;;5030325;28;20037;-86
2023/01/17 08:21:36;;;;;;;13.68;7.03;;;2.40;99.90;;;;;;5006332;28;20026;-85
2023/01/17 08:24:02;;;;;;;20.75;8.60;;;2.40;99.90;;;;;;5012758;28;20056;-85
2023/01/17 08:26:27;;;;;;;20.75;8.85;;;2.40;99.90;;;;;;5029727;28;20060;-85
2023/01/17 08:28:55;;;;;;;23.50;9.60;;;2.40;99.90;;;;;;5031201;28;20038;-88
2023/01/17 08:31:21;;;;;;;25.25;10.48;;;2.40;99.90;;;;;;5031954;28;20482;-87
2023/01/17 08:33:47;;;;;;;21.80;10.18;;;2.40;99.90;;;;;;5024171;28;20045;-88
2023/01/17 08:36:12;;;;;;;18.48;9.40;;;2.40;99.90;;;;;;5011747;28;20049;-87
2023/01/17 08:38:38;;;;;;;24.05;10.68;;;2.40;99.90;;;;;;5013175;28;20509;-86
2023/01/17 08:41:04;;;;;;;24.20;11.13;;;2.40;99.90;;;;;;4993467;28;20454;-86
2023/01/17 08:43:29;;;;;;;22.58;11.40;;;2.40;99.90;;;;;;5008897;28;20154;-85
2023/01/17 08:45:55;;;;;;;30.10;12.70;;;2.40;99.90;;;;;;4990543;28;20061;-85
2023/01/17 08:48:22;;;;;;;25.20;12.45;;;2.40;99.90;;;;;;5027522;28;20071;-85
2023/01/17 08:50:48;;;;;;;30.05;12.32;;;2.40;99.90;;;;;;5022090;28;20026;-85
2023/01/17 08:53:15;;;;;;;34.25;14.25;;;2.40;99.90;;;;;;5006100;28;20045;-85
2023/01/17 08:55:40;;;;;;;29.83;13.60;;;2.40;99.90;;;;;;5024072;28;20030;-85
2023/01/17 08:58:07;;;;;;;30.70;13.90;;;2.50;99.90;;;;;;5001173;28;20048;-85
2023/01/17 09:00:33;;;;;;;32.33;14.63;;;2.40;99.90;;;;;;5025557;28;20052;-85
2023/01/17 09:03:00;;;;;;;39.63;16.42;;;2.40;99.90;;;;;;5026117;28;20127;-85
2023/01/17 09:05:26;;;;;;;30.00;13.77;;;2.40;99.90;;;;;;5014344;28;20518;-85
2023/01/17 09:07:52;;;;;;;30.17;14.05;;;2.40;99.90;;;;;;5012897;28;20053;-86
2023/01/17 09:10:17;;;;;;;33.13;15.18;;;2.50;99.90;;;;;;5000864;28;20429;-86
2023/01/17 09:12:43;;;;;;;32.90;14.32;;;2.50;99.90;;;;;;5027473;28;20038;-86
2023/01/17 09:15:09;;;;;;;33.72;15.48;;;2.50;99.90;;;;;;5008003;28;20041;-86
2023/01/17 09:17:35;;;;;;;31.20;15.00;;;2.50;99.90;;;;;;5025770;28;20116;-86
2023/01/17 09:20:01;;;;;;;27.20;14.70;;;2.50;99.90;;;;;;5029615;28;20427;-86
2023/01/17 09:22:26;;;;;;;30.75;15.00;;;2.60;99.90;;;;;;5026264;28;20521;-86
2023/01/17 09:24:53;;;;;;;32.33;15.30;;;2.60;99.90;;;;;;5031962;28;20064;-87
2023/01/17 09:27:19;;;;;;;31.98;14.40;;;2.60;99.90;;;;;;5032919;28;20597;-84
2023/01/17 09:29:45;;;;;;;28.45;15.00;;;2.60;99.90;;;;;;5029382;28;20144;-84
2023/01/17 09:32:11;;;;;;;26.15;13.45;;;2.70;99.90;;;;;;5008642;28;20495;-84
2023/01/17 09:34:36;;;;;;;25.75;15.05;;;2.70;99.90;;;;;;5028819;28;20086;-81
2023/01/17 09:37:02;;;;;;;31.33;14.98;;;2.70;99.90;;;;;;4989701;28;20360;-84
2023/01/17 09:39:28;;;;;;;26.30;13.98;;;2.70;99.90;;;;;;5031479;28;20041;-84
2023/01/17 09:42:15;;;;;;;27.17;13.45;;;2.80;99.90;;;;;;5002807;28;20033;-83
2023/01/17 09:44:47;;;;;;;22.83;13.00;;;2.80;99.90;;;;;;5031735;28;20030;-84
2023/01/17 09:47:43;;;;;;;22.48;13.23;;;2.80;99.90;;;;;;5031063;28;20045;-84
2023/01/17 09:50:22;;;;;;;23.70;13.10;;;2.80;99.90;;;;;;5020721;28;20042;-84
2023/01/17 09:52:48;;;;;;;23.90;12.77;;;2.90;99.90;;;;;;5024753;28;20033;-84
2023/01/17 09:55:16;;;;;;;23.40;13.13;;;2.90;99.90;;;;;;5027141;28;20437;-84
2023/01/17 09:58:02;;;;;;;26.10;12.95;;;2.90;99.90;;;;;;5017562;28;20018;-84
2023/01/17 10:00:38;;;;;;;23.25;12.88;;;2.90;99.90;;;;;;5027793;28;20041;-86
2023/01/17 10:03:18;;;;;;;20.10;11.43;;;3.00;99.90;;;;;;5007487;28;20045;-83
2023/01/17 10:06:17;;;;;;;22.35;11.35;;;3.00;99.90;;;;;;5012899;28;20042;-83
2023/01/17 10:09:12;;;;;;;19.77;10.90;;;3.00;99.90;;;;;;5013037;28;20074;-83
2023/01/17 10:11:47;;;;;;;20.45;10.85;;;3.10;99.90;;;;;;5012083;28;20128;-83
2023/01/17 10:14:57;;;;;;;22.23;11.18;;;3.10;99.90;;;;;;4994689;28;20030;-83
2023/01/17 10:17:56;;;;;;;19.38;11.18;;;3.10;99.90;;;;;;4970502;28;20070;-83
2023/01/17 10:20:40;;;;;;;23.27;11.48;;;3.10;99.90;;;;;;5013176;28;20062;-83
2023/01/17 10:23:37;;;;;;;18.88;10.35;;;3.20;99.90;;;;;;5002808;28;20060;-83
2023/01/17 10:26:15;;;;;;;24.67;11.82;;;3.20;99.90;;;;;;4996501;28;20060;-83
2023/01/17 10:28:50;;;;;;;19.45;11.80;;;3.30;99.90;;;;;;5010565;28;20037;-83
2023/01/17 10:31:23;;;;;;;24.38;12.98;;;3.30;99.90;;;;;;5011519;28;20394;-84
2023/01/17 10:34:02;;;;;;;17.98;10.10;;;3.40;99.90;;;;;;4995545;28;20403;-83
2023/01/17 10:36:37;;;;;;;21.80;11.75;;;3.40;99.90;;;;;;5006235;28;20034;-84
2023/01/17 10:39:22;;;;;;;18.75;9.63;;;3.50;99.90;;;;;;5007211;28;20033;-84
2023/01/17 10:42:15;;;;;;;19.55;9.77;;;3.50;99.90;;;;;;5012195;28;20038;-84
2023/01/17 10:45:03;;;;;;;17.08;9.63;;;3.50;99.90;;;;;;5011615;28;20046;-84
2023/01/17 10:47:33;;;;;;;19.13;10.55;;;3.50;99.90;;;;;;5014348;28;20045;-84
2023/01/17 10:50:02;;;;;;;22.03;10.87;;;3.60;99.90;;;;;;5013258;28;20042;-86
2023/01/17 10:52:44;;;;;;;18.95;10.32;;;3.60;99.90;;;;;;4985748;28;20376;-84
2023/01/17 10:55:24;;;;;;;19.77;10.68;;;3.70;99.90;;;;;;5009689;28;20367;-83
2023/01/17 10:57:52;;;;;;;20.40;9.68;;;3.70;99.90;;;;;;5003016;28;20121;-84
2023/01/17 11:00:27;;;;;;;16.10;8.68;;;3.70;99.90;;;;;;5011712;28;20036;-85
2023/01/17 11:02:53;;;;;;;22.60;11.02;;;3.80;99.90;;;;;;5021073;28;20045;-86
2023/01/17 11:05:28;;;;;;;20.30;9.43;;;3.80;99.90;;;;;;5027345;28;20037;-86
2023/01/17 11:08:08;;;;;;;18.67;9.43;;;3.80;99.90;;;;;;5026875;28;20041;-86
2023/01/17 11:10:40;;;;;;;19.67;9.77;;;3.90;99.90;;;;;;5019483;28;20091;-86
2023/01/17 11:13:34;;;;;;;17.17;8.90;;;3.90;99.90;;;;;;5025059;28;20277;-86
2023/01/17 11:16:07;;;;;;;16.15;9.10;;;4.00;99.90;;;;;;5021842;28;20044;-86
2023/01/17 11:18:38;;;;;;;19.00;8.93;;;4.10;99.90;;;;;;5022822;28;20034;-86
2023/01/17 11:21:22;;;;;;;17.58;10.02;;;4.10;99.90;;;;;;5023475;28;20133;-86
2023/01/17 11:23:55;;;;;;;14.27;8.30;;;4.10;99.90;;;;;;5022544;28;20029;-86
2023/01/17 11:26:31;;;;;;;18.73;8.90;;;4.10;99.90;;;;;;5021602;28;20080;-88
2023/01/17 11:29:31;;;;;;;16.95;9.27;;;4.10;99.90;;;;;;5026767;28;20037;-85
2023/01/17 11:32:15;;;;;;;17.15;8.32;;;4.20;99.90;;;;;;5028611;28;20128;-87
2023/01/17 11:34:46;;;;;;;15.98;8.07;;;4.20;99.90;;;;;;5025605;28;20398;-90
2023/01/17 11:44:01;;;;;;;17.23;8.65;;;4.30;99.90;;;;;;4975609;28;20061;-91
2023/01/17 11:46:28;;;;;;;15.45;7.88;;;4.40;99.90;;;;;;5024007;28;20029;-89
2023/01/17 11:48:56;;;;;;;16.95;8.57;;;4.40;99.90;;;;;;5028125;28;20117;-90
2023/01/17 11:51:22;;;;;;;15.23;8.07;;;4.50;99.90;;;;;;5027713;28;20022;-91
2023/01/17 11:53:48;;;;;;;16.95;8.77;;;4.50;99.90;;;;;;5034580;28;20037;-90
2023/01/17 11:56:31;;;;;;;14.50;8.25;;;4.60;99.90;;;;;;5005952;28;20126;-90
2023/01/17 11:59:37;;;;;;;11.75;7.18;;;4.70;99.90;;;;;;5023966;28;20037;-93
2023/01/17 12:02:35;;;;;;;16.23;6.60;;;4.70;99.90;;;;;;4995551;28;20045;-90
2023/01/17 12:05:28;;;;;;;17.20;7.82;;;4.70;99.90;;;;;;5010811;28;20069;-90
2023/01/17 12:08:03;;;;;;;14.75;6.43;;;4.80;99.90;;;;;;5029641;28;20033;-88
2023/01/17 12:59:14;;;;;;;8.63;3.22;;;5.40;99.90;;;;;;5052842;28;20057;-89
2023/01/17 13:01:56;;;;;;;7.93;3.70;;;5.40;99.90;;;;;;5045447;28;20025;-88
2023/01/17 13:05:00;;;;;;;7.63;3.40;;;5.50;99.90;;;;;;5042596;28;20029;-89
2023/01/17 13:08:01;;;;;;;8.63;4.10;;;5.60;99.90;;;;;;4955057;28;20105;-88
2023/01/17 13:10:30;;;;;;;7.63;3.83;;;5.60;99.90;;;;;;4967036;28;20035;-88
2023/01/17 13:13:02;;;;;;;6.55;3.22;;;5.70;99.90;;;;;;5027759;28;20037;-89
2023/01/17 13:15:45;;;;;;;10.30;3.58;;;5.80;99.90;;;;;;5054103;28;20045;-88
2023/01/17 13:18:21;;;;;;;5.50;2.70;;;5.80;99.90;;;;;;5045684;28;20057;-88
2023/01/17 13:21:18;;;;;;;4.95;2.65;;;5.80;99.90;;;;;;5039602;28;20039;-89
2023/01/17 13:24:01;;;;;;;7.10;3.72;;;5.90;99.90;;;;;;5037743;28;20053;-87
2023/01/17 13:27:05;;;;;;;7.13;4.18;;;5.90;99.90;;;;;;5041962;28;20502;-89
2023/01/17 13:29:52;;;;;;;6.65;3.00;;;6.00;99.90;;;;;;4959032;28;20038;-89
2023/01/17 13:32:44;;;;;;;6.10;2.80;;;6.00;99.90;;;;;;5070369;28;20468;-89
2023/01/17 13:35:21;;;;;;;6.95;2.97;;;6.00;99.90;;;;;;5021398;28;20027;-89
2023/01/17 13:38:21;;;;;;;5.70;2.45;;;6.10;99.90;;;;;;5081236;28;20041;-90
2023/01/17 13:41:10;;;;;;;;;;;;;;;;;;;;;
2023/01/17 13:46:59;;;;;;;6.47;3.50;;;6.30;99.90;;;;;;5076203;28;20435;-89
2023/01/17 13:49:36;;;;;;;5.90;3.00;;;6.30;99.90;;;;;;5057506;28;20440;-90
2023/01/17 13:52:30;;;;;;;7.45;2.78;;;6.40;99.90;;;;;;5057132;28;20044;-91
2023/01/17 13:55:45;;;;;;;5.65;2.75;;;6.50;99.90;;;;;;5057863;28;20044;-90
2023/01/17 13:59:04;;;;;;;4.72;3.05;;;6.60;99.90;;;;;;5057786;28;20044;-91
2023/01/17 14:01:37;;;;;;;7.07;2.58;;;6.60;99.90;;;;;;5057730;28;20488;-91
2023/01/17 14:04:19;;;;;;;7.28;2.90;;;6.60;99.90;;;;;;5058342;28;20064;-90
2023/01/17 14:06:54;;;;;;;6.70;2.60;;;6.70;99.90;;;;;;5057367;28;20036;-91
2023/01/17 14:09:36;;;;;;;6.40;2.88;;;6.60;99.90;;;;;;5040689;28;20618;-90
2023/01/17 14:12:06;;;;;;;8.68;2.80;;;6.50;99.90;;;;;;5074964;28;20486;-91
2023/01/17 14:14:35;;;;;;;7.13;2.97;;;6.50;99.90;;;;;;5057269;28;20036;-90
2023/01/17 14:17:21;;;;;;;6.88;2.70;;;6.40;99.90;;;;;;5057699;28;20024;-90
2023/01/17 14:20:01;;;;;;;6.72;2.35;;;6.40;99.90;;;;;;5057455;28;20040;-91
2023/01/17 14:22:30;;;;;;;4.10;2.20;;;6.40;99.90;;;;;;5057371;28;20032;-90
2023/01/17 14:25:13;;;;;;;6.15;2.45;;;6.30;99.90;;;;;;5057490;28;20048;-91
2023/01/17 14:28:03;;;;;;;6.47;2.33;;;6.20;99.90;;;;;;5074840;28;20476;-90
2023/01/17 14:30:36;;;;;;;4.30;1.95;;;6.20;99.90;;;;;;5042902;28;20036;-92
2023/01/17 14:33:04;;;;;;;5.10;1.88;;;6.20;99.90;;;;;;5057727;28;20044;-89
2023/01/17 14:36:02;;;;;;;;;;;;;;;;;;;;;
2023/01/17 14:38:30;;;;;;;7.93;1.95;;;6.10;99.90;;;;;;5074477;28;20468;-89
2023/01/17 14:45:01;;;;;;;4.85;1.92;;;6.00;99.90;;;;;;5008886;28;20032;-88
2023/01/17 14:50:28;;;;;;;4.50;1.73;;;5.80;99.90;;;;;;5074366;28;20541;-91
2023/01/17 14:53:18;;;;;;;5.40;1.90;;;5.70;99.90;;;;;;5057053;28;20029;-90
2023/01/17 14:55:56;;;;;;;3.97;1.45;;;5.70;99.90;;;;;;5056815;28;20071;-90
2023/01/17 14:58:33;;;;;;;7.57;2.30;;;5.70;99.90;;;;;;5057001;28;20130;-90
2023/01/17 15:01:51;;;;;;;2.95;1.50;;;5.70;99.90;;;;;;5057090;28;20048;-90
2023/01/17 15:04:36;;;;;;;5.00;1.77;;;5.60;99.90;;;;;;5057921;28;20043;-89
2023/01/17 15:07:26;;;;;;;5.40;1.48;;;5.60;99.90;;;;;;5060991;28;20029;-89
2023/01/17 15:09:54;;;;;;;3.28;1.35;;;5.60;99.90;;;;;;5060437;28;20031;-90
2023/01/17 15:12:20;;;;;;;3.70;2.03;;;5.50;99.90;;;;;;5060063;28;20117;-90
2023/01/17 15:14:50;;;;;;;3.15;1.40;;;5.50;99.90;;;;;;5039501;28;20092;-89
2023/01/17 15:17:23;;;;;;;5.32;2.03;;;5.50;99.90;;;;;;5037004;28;20155;-90
2023/01/17 15:20:11;;;;;;;4.28;1.52;;;5.50;99.90;;;;;;5047261;28;20119;-89
2023/01/17 15:22:59;;;;;;;3.58;1.80;;;5.40;99.90;;;;;;5050226;28;20127;-90
2023/01/17 15:25:27;;;;;;;3.38;1.70;;;5.40;99.90;;;;;;5048481;28;20029;-89
2023/01/17 15:28:11;;;;;;;10.93;3.25;;;5.40;99.90;;;;;;5047703;28;20048;-89
2023/01/17 15:30:55;;;;;;;3.83;1.65;;;5.30;99.90;;;;;;5033687;28;20480;-90
2023/01/17 15:33:23;;;;;;;3.17;1.60;;;5.30;99.90;;;;;;5048673;28;20029;-90
2023/01/17 15:35:58;;;;;;;4.65;1.92;;;5.30;99.90;;;;;;5033256;28;20519;-89
2023/01/17 15:38:25;;;;;;;3.17;1.67;;;5.20;99.90;;;;;;5051563;28;20112;-90
2023/01/17 15:40:53;;;;;;;5.93;1.75;;;5.20;99.90;;;;;;5044107;28;20044;-89
2023/01/17 15:43:34;;;;;;;4.07;1.50;;;5.20;99.90;;;;;;5026905;28;20096;-90
2023/01/17 15:46:19;;;;;;;4.60;1.73;;;5.20;99.90;;;;;;5054981;28;20040;-90
2023/01/17 15:48:50;;;;;;;4.28;1.83;;;5.20;99.90;;;;;;5030462;28;20042;-90
2023/01/17 15:51:44;;;;;;;3.83;1.55;;;5.20;99.90;;;;;;5022186;28;20052;-94
2023/01/17 15:54:30;;;;;;;4.90;1.73;;;5.20;99.90;;;;;;5039284;28;20037;-90
2023/01/17 15:57:26;;;;;;;4.40;2.33;;;5.20;99.90;;;;;;5038603;28;20042;-89
2023/01/17 16:00:19;;;;;;;9.32;2.65;;;5.10;99.90;;;;;;5006951;28;20054;-91
2023/01/17 16:03:34;;;;;;;8.57;3.03;;;5.10;99.90;;;;;;5040463;28;20052;-92
2023/01/17 16:06:45;;;;;;;;;;;;;;;;;;;;;
2023/01/17 16:09:25;;;;;;;4.88;2.38;;;5.00;99.90;;;;;;5031580;28;20104;-92
2023/01/17 16:11:51;;;;;;;5.55;2.40;;;5.00;99.90;;;;;;5043053;28;20094;-92
2023/01/17 16:14:20;;;;;;;9.25;2.30;;;4.90;99.90;;;;;;5048546;28;20041;-92
2023/01/17 16:16:53;;;;;;;7.18;3.35;;;4.90;99.90;;;;;;5048180;28;20032;-88
2023/01/17 16:19:26;;;;;;;6.25;1.95;;;4.90;99.90;;;;;;5039578;28;20030;-90
2023/01/17 16:22:01;;;;;;;5.00;2.33;;;4.90;99.90;;;;;;5035372;28;20537;-92
2023/01/17 16:25:07;;;;;;;5.88;2.38;;;4.80;99.90;;;;;;5046006;28;20076;-90
2023/01/17 16:28:15;;;;;;;6.07;2.60;;;4.70;99.90;;;;;;5023173;28;20045;-90
2023/01/17 16:30:43;;;;;;;8.15;2.95;;;4.70;99.90;;;;;;5040481;28;20065;-90
2023/01/17 16:33:20;;;;;;;5.40;2.08;;;4.70;99.90;;;;;;5022399;28;20034;-91
2023/01/17 16:35:59;;;;;;;6.00;2.55;;;4.60;99.90;;;;;;5023251;28;20088;-91
2023/01/17 16:38:34;;;;;;;8.07;2.50;;;4.60;99.90;;;;;;5021801;28;20041;-89
2023/01/17 16:41:06;;;;;;;5.45;2.20;;;4.50;99.90;;;;;;5012180;28;20038;-90
2023/01/17 16:43:38;;;;;;;4.20;2.03;;;4.50;99.90;;;;;;5019698;28;20062;-90
2023/01/17 16:46:22;;;;;;;6.15;2.05;;;4.40;99.90;;;;;;5021665;28;20091;-91
2023/01/17 16:49:18;;;;;;;;;;;;;;;;;;;;;
2023/01/17 16:51:50;;;;;;;4.07;1.90;;;4.30;99.90;;;;;;5015810;28;20041;-91
2023/01/17 16:54:16;;;;;;;6.53;2.85;;;4.30;99.90;;;;;;5014709;28;20052;-89
2023/01/17 16:56:51;;;;;;;5.60;2.53;;;4.30;99.90;;;;;;5002917;28;20121;-90
2023/01/17 16:59:38;;;;;;;5.38;2.20;;;4.20;99.90;;;;;;5016536;28;20057;-91
2023/01/17 17:02:06;;;;;;;7.93;2.90;;;4.20;99.90;;;;;;5010890;28;20041;-91
2023/01/17 17:04:37;;;;;;;7.80;2.50;;;4.20;99.90;;;;;;5013993;28;20033;-91
2023/01/17 17:07:10;;;;;;;;;;;4.20;99.90;;;;;;5007158;28;20037;-90
2023/01/17 17:09:48;;;;;;;8.05;3.25;;;4.20;99.90;;;;;;4998459;28;19909;-89
2023/01/17 17:17:15;;;;;;;;;;;;;;;;;;;;;
2023/01/17 17:19:51;;;;;;;5.70;2.58;;;4.10;99.90;;;;;;4965420;28;20574;-91
2023/01/17 17:22:25;;;;;;;4.40;2.40;;;4.00;99.90;;;;;;4996370;28;20029;-89
2023/01/17 17:24:53;;;;;;;6.55;3.05;;;4.00;99.90;;;;;;4998747;28;20116;-89
2023/01/17 17:27:19;;;;;;;8.02;3.30;;;3.90;99.90;;;;;;4982122;28;20178;-88
2023/01/17 17:29:46;;;;;;;8.48;3.10;;;3.90;99.90;;;;;;4998181;28;20452;-88
2023/01/17 17:32:12;;;;;;;6.65;2.85;;;3.90;99.90;;;;;;4999391;28;20030;-87
2023/01/17 17:34:38;;;;;;;6.18;3.25;;;3.80;99.90;;;;;;4983214;28;20144;-87
2023/01/17 17:37:55;;;;;;;7.28;3.30;;;3.80;99.90;;;;;;5011277;28;20029;-85
2023/01/17 17:40:48;;;;;;;;;;;;;;;;;;;;;
2023/01/17 17:43:35;;;;;;;;;;;;;;;;;;;;;
2023/01/17 17:46:52;;;;;;;;;;;;;;;;;;;;;
2023/01/17 17:49:51;;;;;;;;;;;;;;;;;;;;;
2023/01/17 17:52:36;;;;;;;;;;;;;;;;;;;;;
2023/01/17 17:55:03;;;;;;;8.50;2.90;;;3.70;99.90;;;;;;5020231;28;20029;-90
2023/01/17 17:57:36;;;;;;;6.43;2.50;;;3.70;99.90;;;;;;5018300;28;20038;-90
2023/01/17 18:00:08;;;;;;;6.95;2.20;;;3.60;99.90;;;;;;5002739;28;20440;-90
2023/01/17 18:05:22;;;;;;;4.82;2.25;;;3.50;99.90;;;;;;5038348;28;20111;-91
2023/01/17 18:07:53;;;;;;;5.00;2.65;;;3.50;99.90;;;;;;5017632;28;20095;-90
2023/01/17 18:10:46;;;;;;;9.02;2.53;;;3.40;99.90;;;;;;5018933;28;20030;-90
2023/01/17 18:13:51;;;;;;;;;;;;;;;;;;;;;
2023/01/17 18:16:40;;;;;;;5.50;2.47;;;3.40;99.90;;;;;;5020746;28;20041;-90
2023/01/17 18:19:26;;;;;;;;;;;;;;;;;;;;;
2023/01/17 18:21:57;;;;;;;6.88;2.97;;;3.30;99.90;;;;;;5015387;28;20037;-89
2023/01/17 18:24:27;;;;;;;8.60;3.47;;;3.30;99.90;;;;;;5009426;28;20090;-89
2023/01/17 18:26:56;;;;;;;8.13;3.47;;;3.30;99.90;;;;;;5021240;28;20021;-89
2023/01/17 18:29:23;;;;;;;5.15;2.70;;;3.30;99.90;;;;;;5017955;28;20053;-88
2023/01/17 18:31:52;;;;;;;9.85;2.70;;;3.20;99.90;;;;;;4998022;28;20124;-88
2023/01/17 18:34:28;;;;;;;7.18;2.70;;;3.20;99.90;;;;;;4996789;28;20613;-88
2023/01/17 18:36:59;;;;;;;7.68;2.67;;;3.20;99.90;;;;;;5001671;28;20132;-88
2023/01/17 18:39:28;;;;;;;6.88;2.65;;;3.10;99.90;;;;;;4994040;28;20619;-88
2023/01/17 18:42:22;;;;;;;7.57;3.13;;;3.20;99.90;;;;;;5021330;28;20076;-89
2023/01/17 18:44:48;;;;;;;8.52;3.47;;;3.10;99.90;;;;;;5004077;28;20099;-89
2023/01/17 18:47:14;;;;;;;10.25;4.07;;;3.10;99.90;;;;;;5017813;28;20041;-90
2023/01/17 18:49:43;;;;;;;9.50;3.65;;;3.10;99.90;;;;;;5000997;28;20038;-90
2023/01/17 18:52:13;;;;;;;8.30;3.38;;;3.10;99.90;;;;;;5000996;28;20038;-88
2023/01/17 18:54:39;;;;;;;8.38;3.25;;;3.10;99.90;;;;;;5027116;28;20515;-88
2023/01/17 18:57:04;;;;;;;6.55;3.40;;;3.00;99.90;;;;;;5008034;28;20045;-88
2023/01/17 18:59:30;;;;;;;8.77;3.55;;;3.10;99.90;;;;;;5037147;28;20136;-88
2023/01/17 19:01:59;;;;;;;9.18;4.88;;;3.00;99.90;;;;;;5040085;28;20060;-88
2023/01/17 19:04:32;;;;;;;6.70;3.13;;;3.00;99.90;;;;;;5040308;28;20037;-89
2023/01/17 19:06:59;;;;;;;11.23;4.75;;;3.00;99.90;;;;;;5040900;28;20029;-87
2023/01/17 19:09:37;;;;;;;10.13;3.90;;;2.90;99.90;;;;;;5058295;28;20029;-88
2023/01/17 19:12:03;;;;;;;10.35;4.03;;;2.90;99.90;;;;;;5021756;28;20034;-88
2023/01/17 19:14:32;;;;;;;9.38;4.38;;;2.90;99.90;;;;;;5020539;28;20025;-87
2023/01/17 19:17:00;;;;;;;9.32;4.25;;;2.90;99.90;;;;;;5023103;28;20564;-88
2023/01/17 19:19:28;;;;;;;8.95;4.78;;;2.90;99.90;;;;;;5021678;28;20056;-90
2023/01/17 19:21:54;;;;;;;9.73;4.20;;;2.90;99.90;;;;;;5030974;28;20025;-88
2023/01/17 19:24:25;;;;;;;10.10;4.30;;;2.90;99.90;;;;;;5036885;28;20032;-89
2023/01/17 19:26:56;;;;;;;11.43;4.68;;;2.90;99.90;;;;;;5021936;28;20120;-90
2023/01/17 19:29:25;;;;;;;8.45;4.40;;;2.80;99.90;;;;;;5031139;28;20390;-90
2023/01/17 19:32:01;;;;;;;14.30;6.22;;;2.80;99.90;;;;;;5047897;28;20032;-90
2023/01/17 19:34:29;;;;;;;12.32;4.97;;;2.80;99.90;;;;;;5026926;28;20524;-92
2023/01/17 19:37:01;;;;;;;8.23;4.45;;;2.80;99.90;;;;;;5037435;28;20392;-89
2023/01/17 19:39:36;;;;;;;10.75;4.70;;;2.70;99.90;;;;;;5032919;28;20037;-88
2023/01/17 19:42:08;;;;;;;11.25;4.80;;;2.80;99.90;;;;;;5020790;28;20473;-87
2023/01/17 19:44:41;;;;;;;10.73;4.90;;;2.70;99.90;;;;;;5019729;28;20040;-89
2023/01/17 19:47:09;;;;;;;10.30;5.00;;;2.70;99.90;;;;;;5020504;28;20041;-87
2023/01/17 19:49:43;;;;;;;10.23;5.18;;;2.70;99.90;;;;;;5020233;28;20037;-88
2023/01/17 19:52:09;;;;;;;10.18;5.68;;;2.70;99.90;;;;;;5020716;28;20514;-88
2023/01/17 19:54:39;;;;;;;11.05;5.35;;;2.60;99.90;;;;;;5044698;28;20064;-88
2023/01/17 19:57:20;;;;;;;;;;;;;;;;;;;;;
2023/01/17 20:02:36;;;;;;;13.15;5.93;;;2.60;99.90;;;;;;5071346;28;20043;-89
2023/01/17 20:05:05;;;;;;;11.15;5.38;;;2.60;99.90;;;;;;5050996;28;20041;-87
2023/01/17 20:07:32;;;;;;;13.18;5.90;;;2.50;99.90;;;;;;5059065;28;20021;-89
2023/01/17 20:09:58;;;;;;;9.35;5.90;;;2.50;99.90;;;;;;5039187;28;20033;-89
2023/01/17 20:12:24;;;;;;;11.82;6.38;;;2.50;99.90;;;;;;5057278;28;20039;-89
2023/01/17 20:14:53;;;;;;;12.20;6.45;;;2.50;99.90;;;;;;5041311;28;20037;-89
2023/01/17 20:17:22;;;;;;;10.48;6.40;;;2.50;99.90;;;;;;5022384;28;20099;-89
2023/01/17 20:20:05;;;;;;;18.30;6.75;;;2.50;99.90;;;;;;5038519;28;20041;-88
2023/01/17 20:22:34;;;;;;;12.52;6.57;;;2.50;99.90;;;;;;5039107;28;20025;-87
2023/01/17 20:25:02;;;;;;;14.55;6.22;;;2.40;99.90;;;;;;5022029;28;20033;-90
2023/01/17 20:27:30;;;;;;;9.23;5.47;;;2.40;99.90;;;;;;5022849;28;20087;-89
2023/01/17 20:30:18;;;;;;;12.00;6.60;;;2.40;99.90;;;;;;5014288;28;20038;-89
2023/01/17 20:32:50;;;;;;;13.32;7.55;;;2.40;99.90;;;;;;5036988;28;20029;-89
2023/01/17 20:35:16;;;;;;;17.33;7.15;;;2.30;99.90;;;;;;5043420;28;20387;-90
2023/01/17 20:37:52;;;;;;;14.05;7.35;;;2.30;99.90;;;;;;5050804;28;20033;-88
2023/01/17 20:40:20;;;;;;;13.63;7.53;;;2.30;99.90;;;;;;5047513;28;20079;-90
2023/01/17 20:42:59;;;;;;;12.10;7.25;;;2.30;99.90;;;;;;5030303;28;20057;-88
2023/01/17 20:45:25;;;;;;;13.15;6.80;;;2.20;99.90;;;;;;5055331;28;20051;-89
2023/01/17 20:47:53;;;;;;;14.68;7.80;;;2.20;99.90;;;;;;5049818;28;20032;-89
2023/01/17 20:50:19;;;;;;;12.38;7.18;;;2.20;99.90;;;;;;5081257;28;20037;-88
2023/01/17 20:52:48;;;;;;;16.17;7.70;;;2.20;99.90;;;;;;5050873;28;20048;-88
2023/01/17 20:55:16;;;;;;;14.70;8.35;;;2.20;99.90;;;;;;5042054;28;20037;-90
2023/01/17 20:57:52;;;;;;;11.68;7.53;;;2.20;99.90;;;;;;5007401;28;20569;-89
2023/01/17 21:00:20;;;;;;;14.77;7.43;;;2.20;99.90;;;;;;5022810;28;20075;-90
2023/01/17 21:02:48;;;;;;;16.90;7.97;;;2.20;99.90;;;;;;5015234;28;20033;-89
2023/01/17 21:05:16;;;;;;;16.90;8.93;;;2.20;99.90;;;;;;5020258;28;20100;-89
2023/01/17 21:07:47;;;;;;;16.02;8.50;;;2.20;99.90;;;;;;5025392;28;20045;-89
2023/01/17 21:10:13;;;;;;;17.35;8.23;;;2.20;99.90;;;;;;5043552;28;20032;-91
2023/01/17 21:12:39;;;;;;;12.27;7.25;;;2.20;99.90;;;;;;5042988;28;20025;-90
2023/01/17 21:15:16;;;;;;;14.23;7.88;;;2.20;99.90;;;;;;5040061;28;20041;-90
2023/01/17 21:17:45;;;;;;;16.75;9.50;;;2.20;99.90;;;;;;5025260;28;20060;-89
2023/01/17 21:20:12;;;;;;;13.23;7.40;;;2.20;99.90;;;;;;5009217;28;20040;-92
2023/01/17 21:22:42;;;;;;;15.05;7.32;;;2.20;99.90;;;;;;5022986;28;20029;-88
2023/01/17 21:25:10;;;;;;;14.25;8.77;;;2.20;99.90;;;;;;5022773;28;20556;-89
2023/01/17 21:27:39;;;;;;;12.45;7.88;;;2.20;99.90;;;;;;5006877;28;20044;-90
2023/01/17 21:30:28;;;;;;;14.88;8.60;;;2.20;99.90;;;;;;5022198;28;20037;-90
2023/01/17 21:32:57;;;;;;;18.95;8.15;;;2.20;99.90;;;;;;5022094;28;20117;-90
2023/01/17 21:35:26;;;;;;;14.60;8.20;;;2.20;99.90;;;;;;5005174;28;20478;-89
2023/01/17 21:37:51;;;;;;;13.52;8.10;;;2.20;99.90;;;;;;5038686;28;20037;-90
2023/01/17 21:40:20;;;;;;;20.65;9.13;;;2.20;99.90;;;;;;5021898;28;20513;-91
2023/01/17 21:42:46;;;;;;;13.35;7.32;;;2.20;99.90;;;;;;5027210;28;20072;-90
2023/01/17 21:45:18;;;;;;;13.05;8.20;;;2.10;99.90;;;;;;5030823;28;20025;-90
2023/01/17 21:47:45;;;;;;;15.32;8.20;;;2.10;99.90;;;;;;5022738;28;20478;-90
2023/01/17 21:50:10;;;;;;;17.92;7.70;;;2.10;99.90;;;;;;5022799;28;20110;-89
2023/01/17 21:52:39;;;;;;;20.58;8.52;;;2.10;99.90;;;;;;5022771;28;20037;-89
2023/01/17 22:00:40;;;;;;;14.32;8.35;;;2.10;99.90;;;;;;5046481;28;20076;-90
2023/01/17 22:03:14;;;;;;;17.95;8.82;;;2.10;99.90;;;;;;5033156;28;20123;-89
2023/01/17 22:05:40;;;;;;;13.60;7.70;;;2.10;99.90;;;;;;5025619;28;20045;-89
2023/01/17 22:08:14;;;;;;;12.15;7.47;;;2.00;99.90;;;;;;5040506;28;20048;-89
2023/01/17 22:10:44;;;;;;;17.27;8.95;;;2.00;99.90;;;;;;5040844;28;20476;-89
2023/01/17 22:13:19;;;;;;;19.23;9.77;;;2.00;99.90;;;;;;5040804;28;20033;-88
2023/01/17 22:15:55;;;;;;;15.70;8.95;;;2.00;99.90;;;;;;5040553;28;20123;-89
2023/01/17 22:18:24;;;;;;;14.40;9.15;;;2.00;99.90;;;;;;5041222;28;20033;-90
2023/01/17 22:20:50;;;;;;;16.40;8.85;;;2.00;99.90;;;;;;5041368;28;20025;-90
2023/01/17 22:23:15;;;;;;;14.32;8.82;;;2.00;99.90;;;;;;5041646;28;20036;-88
2023/01/17 22:25:44;;;;;;;14.30;7.72;;;1.90;99.90;;;;;;5040456;28;20075;-89
2023/01/17 22:28:09;;;;;;;13.02;7.32;;;1.80;99.90;;;;;;5039605;28;20033;-89
2023/01/17 22:30:40;;;;;;;12.80;7.95;;;1.70;99.90;;;;;;5040675;28;20044;-90
2023/01/17 22:33:06;;;;;;;17.92;9.13;;;1.60;99.90;;;;;;5023897;28;20044;-89
2023/01/17 22:35:37;;;;;;;14.15;7.80;;;1.60;99.90;;;;;;5039800;28;20029;-87
2023/01/17 22:38:04;;;;;;;16.23;7.22;;;1.50;99.90;;;;;;5056625;28;20037;-88
2023/01/17 22:40:31;;;;;;;13.75;7.60;;;1.50;99.90;;;;;;5037640;28;20125;-87
2023/01/17 22:42:57;;;;;;;18.42;8.77;;;1.50;99.90;;;;;;5020809;28;20511;-89
2023/01/17 22:45:26;;;;;;;15.55;8.05;;;1.50;99.90;;;;;;5021088;28;20124;-88
2023/01/17 22:47:52;;;;;;;15.30;7.70;;;1.40;99.90;;;;;;5020946;28;20064;-88
2023/01/17 22:50:17;;;;;;;15.30;7.45;;;1.40;99.90;;;;;;5038192;28;20033;-88
2023/01/17 22:52:43;;;;;;;12.05;7.20;;;1.40;99.90;;;;;;5038452;28;20388;-88
2023/01/17 22:55:10;;;;;;;14.77;7.35;;;1.40;99.90;;;;;;5009670;28;20048;-88
2023/01/17 22:57:36;;;;;;;15.70;8.55;;;1.40;99.90;;;;;;5017999;28;20044;-88
2023/01/17 23:00:13;;;;;;;16.35;8.25;;;1.40;99.90;;;;;;5028391;28;20045;-88
2023/01/17 23:02:40;;;;;;;14.05;7.70;;;1.40;99.90;;;;;;5001597;28;20560;-88
2023/01/17 23:05:08;;;;;;;15.05;7.57;;;1.40;99.90;;;;;;5017258;28;20029;-89
2023/01/17 23:07:43;;;;;;;13.55;8.02;;;1.40;99.90;;;;;;5016914;28;20120;-88
2023/01/17 23:10:11;;;;;;;15.77;9.00;;;1.40;99.90;;;;;;5001940;28;20034;-88